sensor_id;sensor_type;location;lat;lon;timestamp;temperature;humidity
46416;DHT22;32620;51.704;7.822;2022-09-09T00:00:55;15.80;99.90
46416;DHT22;32620;51.704;7.822;2022-09-09T00:03:26;15.70;99.90
46416;DHT22;32620;51.704;7.822;2022-09-09T00:06:03;15.70;99.90
46416;DHT22;32620;51.704;7.822;2022-09-09T00:11:24;15.50;99.90
46416;DHT22;32620;51.704;7.822;2022-09-09T00:13:52;15.50;99.90
46416;DHT22;32620;51.704;7.822;2022-09-09T00:16:19;15.40;99.90
46416;DHT22;32620;51.704;7.822;2022-09-09T00:21:35;15.40;99.90
46416;DHT22;32620;51.704;7.822;2022-09-09T00:24:08;15.40;99.90
46416;DHT22;32620;51.704;7.822;2022-09-09T00:26:36;15.40;99.90
46416;DHT22;32620;51.704;7.822;2022-09-09T00:29:05;15.30;99.90
46416;DHT22;32620;51.704;7.822;2022-09-09T00:31:35;15.30;99.90
46416;DHT22;32620;51.704;7.822;2022-09-09T00:34:11;15.30;99.90
46416;DHT22;32620;51.704;7.822;2022-09-09T00:36:38;15.30;99.90
46416;DHT22;32620;51.704;7.822;2022-09-09T00:39:04;15.30;99.90
46416;DHT22;32620;51.704;7.822;2022-09-09T00:41:36;15.20;99.90
46416;DHT22;32620;51.704;7.822;2022-09-09T00:44:16;15.20;99.90
46416;DHT22;32620;51.704;7.822;2022-09-09T00:49:35;15.10;99.90
46416;DHT22;32620;51.704;7.822;2022-09-09T00:52:16;15.10;99.90
46416;DHT22;32620;51.704;7.822;2022-09-09T00:57:32;15.10;99.90
46416;DHT22;32620;51.704;7.822;2022-09-09T01:00:16;15.10;99.90
46416;DHT22;32620;51.704;7.822;2022-09-09T01:08:35;14.90;99.90
46416;DHT22;32620;51.704;7.822;2022-09-09T01:11:01;14.80;99.90
46416;DHT22;32620;51.704;7.822;2022-09-09T01:13:28;14.80;99.90
46416;DHT22;32620;51.704;7.822;2022-09-09T01:15:56;14.80;99.90
46416;DHT22;32620;51.704;7.822;2022-09-09T01:18:23;14.70;99.90
46416;DHT22;32620;51.704;7.822;2022-09-09T01:20:54;14.70;99.90
46416;DHT22;32620;51.704;7.822;2022-09-09T01:23:26;14.70;99.90
46416;DHT22;32620;51.704;7.822;2022-09-09T01:26:04;14.70;99.90
46416;DHT22;32620;51.704;7.822;2022-09-09T01:28:34;14.70;99.90
46416;DHT22;32620;51.704;7.822;2022-09-09T01:31:00;14.80;99.90
46416;DHT22;32620;51.704;7.822;2022-09-09T01:33:27;14.80;99.90
46416;DHT22;32620;51.704;7.822;2022-09-09T01:35:55;14.80;99.90
46416;DHT22;32620;51.704;7.822;2022-09-09T01:38:22;14.80;99.90
46416;DHT22;32620;51.704;7.822;2022-09-09T01:40:49;14.80;99.90
46416;DHT22;32620;51.704;7.822;2022-09-09T01:43:18;14.90;99.90
46416;DHT22;32620;51.704;7.822;2022-09-09T01:45:43;14.90;99.90
46416;DHT22;32620;51.704;7.822;2022-09-09T01:48:09;14.90;99.90
46416;DHT22;32620;51.704;7.822;2022-09-09T01:50:34;14.90;99.90
46416;DHT22;32620;51.704;7.822;2022-09-09T01:53:00;14.90;99.90
46416;DHT22;32620;51.704;7.822;2022-09-09T01:55:28;14.90;99.90
46416;DHT22;32620;51.704;7.822;2022-09-09T01:58:06;14.80;99.90
46416;DHT22;32620;51.704;7.822;2022-09-09T02:00:37;14.80;99.90
46416;DHT22;32620;51.704;7.822;2022-09-09T02:03:10;14.80;99.90
46416;DHT22;32620;51.704;7.822;2022-09-09T02:05:40;14.70;99.90
46416;DHT22;32620;51.704;7.822;2022-09-09T02:08:07;14.70;99.90
46416;DHT22;32620;51.704;7.822;2022-09-09T02:13:19;14.60;99.90
46416;DHT22;32620;51.704;7.822;2022-09-09T02:15:55;14.50;99.90
46416;DHT22;32620;51.704;7.822;2022-09-09T02:18:24;14.40;99.90
46416;DHT22;32620;51.704;7.822;2022-09-09T02:20:51;14.30;99.90
46416;DHT22;32620;51.704;7.822;2022-09-09T02:25:43;14.20;99.90
46416;DHT22;32620;51.704;7.822;2022-09-09T02:28:09;14.10;99.90
46416;DHT22;32620;51.704;7.822;2022-09-09T02:30:35;14.10;99.90
46416;DHT22;32620;51.704;7.822;2022-09-09T02:33:03;14.00;99.90
46416;DHT22;32620;51.704;7.822;2022-09-09T02:35:29;13.90;99.90
46416;DHT22;32620;51.704;7.822;2022-09-09T02:37:56;14.00;99.90
46416;DHT22;32620;51.704;7.822;2022-09-09T02:40:24;13.90;99.90
46416;DHT22;32620;51.704;7.822;2022-09-09T02:42:50;14.00;99.90
46416;DHT22;32620;51.704;7.822;2022-09-09T02:45:18;14.00;99.90
46416;DHT22;32620;51.704;7.822;2022-09-09T02:47:47;14.00;99.90
46416;DHT22;32620;51.704;7.822;2022-09-09T02:50:16;14.00;99.90
46416;DHT22;32620;51.704;7.822;2022-09-09T02:58:16;14.10;99.90
46416;DHT22;32620;51.704;7.822;2022-09-09T03:00:43;14.10;99.90
46416;DHT22;32620;51.704;7.822;2022-09-09T03:03:09;14.20;99.90
46416;DHT22;32620;51.704;7.822;2022-09-09T03:05:35;14.20;99.90
46416;DHT22;32620;51.704;7.822;2022-09-09T03:08:01;14.30;99.90
46416;DHT22;32620;51.704;7.822;2022-09-09T03:10:27;14.30;99.90
46416;DHT22;32620;51.704;7.822;2022-09-09T03:12:52;14.30;99.90
46416;DHT22;32620;51.704;7.822;2022-09-09T03:15:18;14.30;99.90
46416;DHT22;32620;51.704;7.822;2022-09-09T03:17:43;14.40;99.90
46416;DHT22;32620;51.704;7.822;2022-09-09T03:20:09;14.40;99.90
46416;DHT22;32620;51.704;7.822;2022-09-09T03:22:34;14.40;99.90
46416;DHT22;32620;51.704;7.822;2022-09-09T03:25:00;14.40;99.90
46416;DHT22;32620;51.704;7.822;2022-09-09T03:27:28;14.40;99.90
46416;DHT22;32620;51.704;7.822;2022-09-09T03:29:53;14.40;99.90
46416;DHT22;32620;51.704;7.822;2022-09-09T03:32:19;14.40;99.90
46416;DHT22;32620;51.704;7.822;2022-09-09T03:34:47;14.50;99.90
46416;DHT22;32620;51.704;7.822;2022-09-09T03:37:15;14.50;99.90
46416;DHT22;32620;51.704;7.822;2022-09-09T03:39:40;14.60;99.90
46416;DHT22;32620;51.704;7.822;2022-09-09T03:42:06;14.50;99.90
46416;DHT22;32620;51.704;7.822;2022-09-09T03:44:31;14.60;99.90
46416;DHT22;32620;51.704;7.822;2022-09-09T03:46:57;14.60;99.90
46416;DHT22;32620;51.704;7.822;2022-09-09T03:49:26;14.60;99.90
46416;DHT22;32620;51.704;7.822;2022-09-09T03:51:54;14.50;99.90
46416;DHT22;32620;51.704;7.822;2022-09-09T03:54:20;14.50;99.90
46416;DHT22;32620;51.704;7.822;2022-09-09T03:56:45;14.50;99.90
46416;DHT22;32620;51.704;7.822;2022-09-09T03:59:10;14.40;99.90
46416;DHT22;32620;51.704;7.822;2022-09-09T04:01:36;14.40;99.90
46416;DHT22;32620;51.704;7.822;2022-09-09T04:04:01;14.40;99.90
46416;DHT22;32620;51.704;7.822;2022-09-09T04:06:27;14.40;99.90
46416;DHT22;32620;51.704;7.822;2022-09-09T04:08:53;14.40;99.90
46416;DHT22;32620;51.704;7.822;2022-09-09T04:11:18;14.40;99.90
46416;DHT22;32620;51.704;7.822;2022-09-09T04:13:44;14.40;99.90
46416;DHT22;32620;51.704;7.822;2022-09-09T04:16:10;14.40;99.90
46416;DHT22;32620;51.704;7.822;2022-09-09T04:18:36;14.40;99.90
46416;DHT22;32620;51.704;7.822;2022-09-09T04:21:02;14.40;99.90
46416;DHT22;32620;51.704;7.822;2022-09-09T04:23:28;14.40;99.90
46416;DHT22;32620;51.704;7.822;2022-09-09T04:25:54;14.40;99.90
46416;DHT22;32620;51.704;7.822;2022-09-09T04:28:22;14.40;99.90
46416;DHT22;32620;51.704;7.822;2022-09-09T04:30:47;14.50;99.90
46416;DHT22;32620;51.704;7.822;2022-09-09T04:33:13;14.50;99.90
46416;DHT22;32620;51.704;7.822;2022-09-09T04:35:39;14.50;99.90
46416;DHT22;32620;51.704;7.822;2022-09-09T04:38:08;14.50;99.90
46416;DHT22;32620;51.704;7.822;2022-09-09T04:40:34;14.60;99.90
46416;DHT22;32620;51.704;7.822;2022-09-09T04:43:00;14.70;99.90
46416;DHT22;32620;51.704;7.822;2022-09-09T04:45:26;14.80;99.90
46416;DHT22;32620;51.704;7.822;2022-09-09T04:47:51;14.90;99.90
46416;DHT22;32620;51.704;7.822;2022-09-09T04:50:17;14.90;99.90
46416;DHT22;32620;51.704;7.822;2022-09-09T04:52:44;15.00;99.90
46416;DHT22;32620;51.704;7.822;2022-09-09T04:55:09;15.00;99.90
46416;DHT22;32620;51.704;7.822;2022-09-09T04:57:34;15.10;99.90
46416;DHT22;32620;51.704;7.822;2022-09-09T05:00:00;15.10;99.90
46416;DHT22;32620;51.704;7.822;2022-09-09T05:02:26;15.10;99.90
46416;DHT22;32620;51.704;7.822;2022-09-09T05:04:52;15.20;99.90
46416;DHT22;32620;51.704;7.822;2022-09-09T05:07:17;15.20;99.90
46416;DHT22;32620;51.704;7.822;2022-09-09T05:09:44;15.30;99.90
46416;DHT22;32620;51.704;7.822;2022-09-09T05:12:10;15.30;99.90
46416;DHT22;32620;51.704;7.822;2022-09-09T05:14:36;15.40;99.90
46416;DHT22;32620;51.704;7.822;2022-09-09T05:17:02;15.40;99.90
46416;DHT22;32620;51.704;7.822;2022-09-09T05:19:28;15.40;99.90
46416;DHT22;32620;51.704;7.822;2022-09-09T05:21:54;15.50;99.90
46416;DHT22;32620;51.704;7.822;2022-09-09T05:24:19;15.50;99.90
46416;DHT22;32620;51.704;7.822;2022-09-09T05:26:44;15.50;99.90
46416;DHT22;32620;51.704;7.822;2022-09-09T05:29:10;15.60;99.90
46416;DHT22;32620;51.704;7.822;2022-09-09T05:31:36;15.70;99.90
46416;DHT22;32620;51.704;7.822;2022-09-09T05:34:01;15.70;99.90
46416;DHT22;32620;51.704;7.822;2022-09-09T05:36:27;15.80;99.90
46416;DHT22;32620;51.704;7.822;2022-09-09T05:38:52;15.80;99.90
46416;DHT22;32620;51.704;7.822;2022-09-09T05:41:19;15.80;99.90
46416;DHT22;32620;51.704;7.822;2022-09-09T05:43:45;15.80;99.90
46416;DHT22;32620;51.704;7.822;2022-09-09T05:46:13;15.80;99.90
46416;DHT22;32620;51.704;7.822;2022-09-09T05:48:39;15.90;99.90
46416;DHT22;32620;51.704;7.822;2022-09-09T05:51:06;15.90;99.90
46416;DHT22;32620;51.704;7.822;2022-09-09T05:53:32;15.90;99.90
46416;DHT22;32620;51.704;7.822;2022-09-09T05:56:03;16.00;99.90
46416;DHT22;32620;51.704;7.822;2022-09-09T05:58:29;16.10;99.90
46416;DHT22;32620;51.704;7.822;2022-09-09T06:01:11;16.10;99.90
46416;DHT22;32620;51.704;7.822;2022-09-09T06:03:38;16.20;99.90
46416;DHT22;32620;51.704;7.822;2022-09-09T06:06:04;16.20;99.90
46416;DHT22;32620;51.704;7.822;2022-09-09T06:08:31;16.20;99.90
46416;DHT22;32620;51.704;7.822;2022-09-09T06:11:01;16.20;99.90
46416;DHT22;32620;51.704;7.822;2022-09-09T06:13:27;16.30;99.90
46416;DHT22;32620;51.704;7.822;2022-09-09T06:15:53;16.30;99.90
46416;DHT22;32620;51.704;7.822;2022-09-09T06:18:18;16.30;99.90
46416;DHT22;32620;51.704;7.822;2022-09-09T06:21:00;16.30;99.90
46416;DHT22;32620;51.704;7.822;2022-09-09T06:23:26;16.30;99.90
46416;DHT22;32620;51.704;7.822;2022-09-09T06:26:00;16.30;99.90
46416;DHT22;32620;51.704;7.822;2022-09-09T06:28:25;16.30;99.90
46416;DHT22;32620;51.704;7.822;2022-09-09T06:30:56;16.30;99.90
46416;DHT22;32620;51.704;7.822;2022-09-09T06:33:23;16.40;99.90
46416;DHT22;32620;51.704;7.822;2022-09-09T06:35:52;16.40;99.90
46416;DHT22;32620;51.704;7.822;2022-09-09T06:38:18;16.40;99.90
46416;DHT22;32620;51.704;7.822;2022-09-09T06:40:50;16.40;99.90
46416;DHT22;32620;51.704;7.822;2022-09-09T06:43:16;16.50;99.90
46416;DHT22;32620;51.704;7.822;2022-09-09T06:45:42;16.60;99.90
46416;DHT22;32620;51.704;7.822;2022-09-09T06:48:07;16.70;99.90
46416;DHT22;32620;51.704;7.822;2022-09-09T06:50:34;16.70;99.90
46416;DHT22;32620;51.704;7.822;2022-09-09T06:53:00;16.80;99.90
46416;DHT22;32620;51.704;7.822;2022-09-09T06:55:25;16.90;99.90
46416;DHT22;32620;51.704;7.822;2022-09-09T06:57:50;17.10;99.90
46416;DHT22;32620;51.704;7.822;2022-09-09T07:00:17;17.10;99.90
46416;DHT22;32620;51.704;7.822;2022-09-09T07:02:43;17.20;99.90
46416;DHT22;32620;51.704;7.822;2022-09-09T07:05:09;17.30;99.90
46416;DHT22;32620;51.704;7.822;2022-09-09T07:07:35;17.40;99.90
46416;DHT22;32620;51.704;7.822;2022-09-09T07:10:00;17.50;99.90
46416;DHT22;32620;51.704;7.822;2022-09-09T07:12:26;17.60;99.90
46416;DHT22;32620;51.704;7.822;2022-09-09T07:14:51;17.70;99.90
46416;DHT22;32620;51.704;7.822;2022-09-09T07:17:16;17.70;99.90
46416;DHT22;32620;51.704;7.822;2022-09-09T07:19:42;17.70;99.90
46416;DHT22;32620;51.704;7.822;2022-09-09T07:22:08;17.60;99.90
46416;DHT22;32620;51.704;7.822;2022-09-09T07:24:34;17.80;99.90
46416;DHT22;32620;51.704;7.822;2022-09-09T07:26:59;17.70;99.90
46416;DHT22;32620;51.704;7.822;2022-09-09T07:29:25;17.80;99.90
46416;DHT22;32620;51.704;7.822;2022-09-09T07:31:50;17.80;99.90
46416;DHT22;32620;51.704;7.822;2022-09-09T07:34:16;17.90;99.90
46416;DHT22;32620;51.704;7.822;2022-09-09T07:36:41;18.00;99.90
46416;DHT22;32620;51.704;7.822;2022-09-09T07:41:35;18.20;99.90
46416;DHT22;32620;51.704;7.822;2022-09-09T07:44:05;18.40;99.90
46416;DHT22;32620;51.704;7.822;2022-09-09T07:46:31;18.50;99.90
46416;DHT22;32620;51.704;7.822;2022-09-09T07:48:57;18.50;99.90
46416;DHT22;32620;51.704;7.822;2022-09-09T07:51:26;18.60;99.90
46416;DHT22;32620;51.704;7.822;2022-09-09T07:53:53;18.60;99.90
46416;DHT22;32620;51.704;7.822;2022-09-09T07:56:19;18.40;99.90
46416;DHT22;32620;51.704;7.822;2022-09-09T07:58:48;18.20;99.90
46416;DHT22;32620;51.704;7.822;2022-09-09T08:01:14;18.10;99.90
46416;DHT22;32620;51.704;7.822;2022-09-09T08:03:41;18.00;99.90
46416;DHT22;32620;51.704;7.822;2022-09-09T08:06:07;17.90;99.90
46416;DHT22;32620;51.704;7.822;2022-09-09T08:08:34;17.70;99.90
46416;DHT22;32620;51.704;7.822;2022-09-09T08:11:15;17.70;99.90
46416;DHT22;32620;51.704;7.822;2022-09-09T08:13:42;18.00;99.90
46416;DHT22;32620;51.704;7.822;2022-09-09T08:16:09;18.80;99.90
46416;DHT22;32620;51.704;7.822;2022-09-09T08:18:35;19.30;99.90
46416;DHT22;32620;51.704;7.822;2022-09-09T08:23:27;20.30;99.90
46416;DHT22;32620;51.704;7.822;2022-09-09T08:25:52;20.00;99.90
46416;DHT22;32620;51.704;7.822;2022-09-09T08:28:18;20.40;99.90
46416;DHT22;32620;51.704;7.822;2022-09-09T08:30:43;20.20;99.90
46416;DHT22;32620;51.704;7.822;2022-09-09T08:33:09;20.50;99.90
46416;DHT22;32620;51.704;7.822;2022-09-09T08:35:34;20.70;99.90
46416;DHT22;32620;51.704;7.822;2022-09-09T08:38:00;20.10;99.90
46416;DHT22;32620;51.704;7.822;2022-09-09T08:40:26;19.70;99.90
46416;DHT22;32620;51.704;7.822;2022-09-09T08:42:53;19.60;99.90
46416;DHT22;32620;51.704;7.822;2022-09-09T08:45:24;19.80;99.90
46416;DHT22;32620;51.704;7.822;2022-09-09T08:47:56;19.70;99.90
46416;DHT22;32620;51.704;7.822;2022-09-09T08:50:26;19.20;99.90
46416;DHT22;32620;51.704;7.822;2022-09-09T08:52:59;19.00;99.90
46416;DHT22;32620;51.704;7.822;2022-09-09T08:55:28;19.20;99.90
46416;DHT22;32620;51.704;7.822;2022-09-09T08:57:56;19.40;99.90
46416;DHT22;32620;51.704;7.822;2022-09-09T09:00:23;19.90;99.90
46416;DHT22;32620;51.704;7.822;2022-09-09T09:03:11;20.50;99.90
46416;DHT22;32620;51.704;7.822;2022-09-09T09:11:07;22.50;99.90
46416;DHT22;32620;51.704;7.822;2022-09-09T09:16:21;20.80;99.90
46416;DHT22;32620;51.704;7.822;2022-09-09T09:18:48;21.40;99.90
46416;DHT22;32620;51.704;7.822;2022-09-09T09:21:19;22.40;99.90
46416;DHT22;32620;51.704;7.822;2022-09-09T09:23:54;22.50;99.90
46416;DHT22;32620;51.704;7.822;2022-09-09T09:26:21;22.50;99.90
46416;DHT22;32620;51.704;7.822;2022-09-09T09:28:47;21.90;99.90
46416;DHT22;32620;51.704;7.822;2022-09-09T09:31:13;21.40;99.90
46416;DHT22;32620;51.704;7.822;2022-09-09T09:36:18;21.30;99.90
46416;DHT22;32620;51.704;7.822;2022-09-09T09:38:53;20.80;99.90
46416;DHT22;32620;51.704;7.822;2022-09-09T09:41:51;21.00;99.90
46416;DHT22;32620;51.704;7.822;2022-09-09T09:44:05;21.80;99.90
46416;DHT22;32620;51.704;7.822;2022-09-09T09:46:32;21.70;99.90
46416;DHT22;32620;51.704;7.822;2022-09-09T09:48:59;21.70;99.90
46416;DHT22;32620;51.704;7.822;2022-09-09T09:51:25;22.00;99.90
46416;DHT22;32620;51.704;7.822;2022-09-09T09:53:51;21.90;99.90
46416;DHT22;32620;51.704;7.822;2022-09-09T09:56:25;21.40;99.90
46416;DHT22;32620;51.704;7.822;2022-09-09T09:58:52;21.20;99.90
46416;DHT22;32620;51.704;7.822;2022-09-09T10:01:24;21.50;99.90
46416;DHT22;32620;51.704;7.822;2022-09-09T10:03:50;21.80;99.90
46416;DHT22;32620;51.704;7.822;2022-09-09T10:06:16;22.40;99.90
46416;DHT22;32620;51.704;7.822;2022-09-09T10:08:45;22.20;99.90
46416;DHT22;32620;51.704;7.822;2022-09-09T10:13:48;22.00;99.90
46416;DHT22;32620;51.704;7.822;2022-09-09T10:19:15;22.00;99.90
46416;DHT22;32620;51.704;7.822;2022-09-09T10:24:36;22.70;99.90
46416;DHT22;32620;51.704;7.822;2022-09-09T10:30:24;22.40;99.90
46416;DHT22;32620;51.704;7.822;2022-09-09T10:38:13;23.60;99.90
46416;DHT22;32620;51.704;7.822;2022-09-09T10:43:37;23.20;99.90
46416;DHT22;32620;51.704;7.822;2022-09-09T10:48:56;21.70;99.90
46416;DHT22;32620;51.704;7.822;2022-09-09T10:51:29;21.50;99.90
46416;DHT22;32620;51.704;7.822;2022-09-09T10:54:01;21.20;99.90
46416;DHT22;32620;51.704;7.822;2022-09-09T10:56:30;21.20;99.90
46416;DHT22;32620;51.704;7.822;2022-09-09T10:58:59;21.20;99.90
46416;DHT22;32620;51.704;7.822;2022-09-09T11:01:27;21.70;99.90
46416;DHT22;32620;51.704;7.822;2022-09-09T11:03:56;21.70;99.90
46416;DHT22;32620;51.704;7.822;2022-09-09T11:06:25;21.80;99.90
46416;DHT22;32620;51.704;7.822;2022-09-09T11:08:53;22.00;99.90
46416;DHT22;32620;51.704;7.822;2022-09-09T11:11:21;22.30;99.90
46416;DHT22;32620;51.704;7.822;2022-09-09T11:16:22;22.40;99.90
46416;DHT22;32620;51.704;7.822;2022-09-09T11:18:50;21.70;99.90
46416;DHT22;32620;51.704;7.822;2022-09-09T11:21:20;21.80;99.90
46416;DHT22;32620;51.704;7.822;2022-09-09T11:23:49;22.10;99.90
46416;DHT22;32620;51.704;7.822;2022-09-09T11:26:18;22.00;99.90
46416;DHT22;32620;51.704;7.822;2022-09-09T11:34:18;22.10;99.90
46416;DHT22;32620;51.704;7.822;2022-09-09T11:42:19;22.00;99.90
46416;DHT22;32620;51.704;7.822;2022-09-09T11:44:45;22.10;99.90
46416;DHT22;32620;51.704;7.822;2022-09-09T11:47:28;22.20;99.90
46416;DHT22;32620;51.704;7.822;2022-09-09T11:50:07;22.60;99.90
46416;DHT22;32620;51.704;7.822;2022-09-09T11:55:20;22.10;99.90
46416;DHT22;32620;51.704;7.822;2022-09-09T11:57:49;22.00;99.90
46416;DHT22;32620;51.704;7.822;2022-09-09T12:00:38;21.60;99.90
46416;DHT22;32620;51.704;7.822;2022-09-09T12:03:31;21.60;99.90
46416;DHT22;32620;51.704;7.822;2022-09-09T12:05:54;21.90;99.90
46416;DHT22;32620;51.704;7.822;2022-09-09T12:08:23;22.70;99.90
46416;DHT22;32620;51.704;7.822;2022-09-09T12:10:53;22.90;99.90
46416;DHT22;32620;51.704;7.822;2022-09-09T12:13:22;22.60;99.90
46416;DHT22;32620;51.704;7.822;2022-09-09T12:15:50;22.60;99.90
46416;DHT22;32620;51.704;7.822;2022-09-09T12:18:21;22.50;99.90
46416;DHT22;32620;51.704;7.822;2022-09-09T12:23:57;22.60;99.90
46416;DHT22;32620;51.704;7.822;2022-09-09T12:26:36;22.80;99.90
46416;DHT22;32620;51.704;7.822;2022-09-09T12:29:09;22.40;99.90
46416;DHT22;32620;51.704;7.822;2022-09-09T12:31:41;22.70;99.90
46416;DHT22;32620;51.704;7.822;2022-09-09T12:34:10;22.60;99.90
46416;DHT22;32620;51.704;7.822;2022-09-09T12:36:37;23.10;99.90
46416;DHT22;32620;51.704;7.822;2022-09-09T12:39:14;22.90;99.90
46416;DHT22;32620;51.704;7.822;2022-09-09T12:41:41;22.90;99.90
46416;DHT22;32620;51.704;7.822;2022-09-09T12:44:08;22.30;99.90
46416;DHT22;32620;51.704;7.822;2022-09-09T12:46:42;22.10;99.90
46416;DHT22;32620;51.704;7.822;2022-09-09T12:49:26;21.90;99.90
46416;DHT22;32620;51.704;7.822;2022-09-09T12:51:52;21.70;99.90
46416;DHT22;32620;51.704;7.822;2022-09-09T12:54:17;21.80;99.90
46416;DHT22;32620;51.704;7.822;2022-09-09T12:56:45;21.80;99.90
46416;DHT22;32620;51.704;7.822;2022-09-09T12:59:34;21.80;99.90
46416;DHT22;32620;51.704;7.822;2022-09-09T13:01:57;22.10;99.90
46416;DHT22;32620;51.704;7.822;2022-09-09T13:04:23;22.00;99.90
46416;DHT22;32620;51.704;7.822;2022-09-09T13:06:49;21.90;99.90
46416;DHT22;32620;51.704;7.822;2022-09-09T13:09:14;21.70;99.90
46416;DHT22;32620;51.704;7.822;2022-09-09T13:11:41;21.50;99.90
46416;DHT22;32620;51.704;7.822;2022-09-09T13:14:16;21.50;99.90
46416;DHT22;32620;51.704;7.822;2022-09-09T13:16:53;21.40;99.90
46416;DHT22;32620;51.704;7.822;2022-09-09T13:19:19;21.30;99.90
46416;DHT22;32620;51.704;7.822;2022-09-09T13:21:46;21.20;99.90
46416;DHT22;32620;51.704;7.822;2022-09-09T13:24:29;20.90;99.90
46416;DHT22;32620;51.704;7.822;2022-09-09T13:26:56;20.70;99.90
46416;DHT22;32620;51.704;7.822;2022-09-09T13:29:21;20.60;99.90
46416;DHT22;32620;51.704;7.822;2022-09-09T13:31:47;20.10;99.90
46416;DHT22;32620;51.704;7.822;2022-09-09T13:34:22;19.40;99.90
46416;DHT22;32620;51.704;7.822;2022-09-09T13:36:52;19.10;99.90
46416;DHT22;32620;51.704;7.822;2022-09-09T13:39:19;18.60;99.90
46416;DHT22;32620;51.704;7.822;2022-09-09T13:41:45;18.60;99.90
46416;DHT22;32620;51.704;7.822;2022-09-09T13:44:17;18.80;99.90
46416;DHT22;32620;51.704;7.822;2022-09-09T13:46:44;19.00;99.90
46416;DHT22;32620;51.704;7.822;2022-09-09T13:51:38;19.40;99.90
46416;DHT22;32620;51.704;7.822;2022-09-09T13:54:05;19.50;99.90
46416;DHT22;32620;51.704;7.822;2022-09-09T13:56:33;19.50;99.90
46416;DHT22;32620;51.704;7.822;2022-09-09T13:59:02;19.70;99.90
46416;DHT22;32620;51.704;7.822;2022-09-09T14:01:28;19.70;99.90
46416;DHT22;32620;51.704;7.822;2022-09-09T14:03:54;19.70;99.90
46416;DHT22;32620;51.704;7.822;2022-09-09T14:06:19;19.80;99.90
46416;DHT22;32620;51.704;7.822;2022-09-09T14:08:47;20.10;99.90
46416;DHT22;32620;51.704;7.822;2022-09-09T14:11:13;20.40;99.90
46416;DHT22;32620;51.704;7.822;2022-09-09T14:13:38;20.50;99.90
46416;DHT22;32620;51.704;7.822;2022-09-09T14:16:04;20.30;99.90
46416;DHT22;32620;51.704;7.822;2022-09-09T14:18:29;20.60;99.90
46416;DHT22;32620;51.704;7.822;2022-09-09T14:20:55;20.90;99.90
46416;DHT22;32620;51.704;7.822;2022-09-09T14:23:22;21.20;99.90
46416;DHT22;32620;51.704;7.822;2022-09-09T14:25:47;21.30;99.90
46416;DHT22;32620;51.704;7.822;2022-09-09T14:28:14;21.30;99.90
46416;DHT22;32620;51.704;7.822;2022-09-09T14:30:41;21.20;99.90
46416;DHT22;32620;51.704;7.822;2022-09-09T14:33:07;21.10;99.90
46416;DHT22;32620;51.704;7.822;2022-09-09T14:35:33;20.90;99.90
46416;DHT22;32620;51.704;7.822;2022-09-09T14:37:59;20.90;99.90
46416;DHT22;32620;51.704;7.822;2022-09-09T14:40:26;21.10;99.90
46416;DHT22;32620;51.704;7.822;2022-09-09T14:42:52;20.90;99.90
46416;DHT22;32620;51.704;7.822;2022-09-09T14:45:17;20.60;99.90
46416;DHT22;32620;51.704;7.822;2022-09-09T14:47:43;20.40;99.90
46416;DHT22;32620;51.704;7.822;2022-09-09T14:50:08;20.40;99.90
46416;DHT22;32620;51.704;7.822;2022-09-09T14:52:34;20.30;99.90
46416;DHT22;32620;51.704;7.822;2022-09-09T14:54:59;20.30;99.90
46416;DHT22;32620;51.704;7.822;2022-09-09T14:57:25;20.30;99.90
46416;DHT22;32620;51.704;7.822;2022-09-09T14:59:50;20.20;99.90
46416;DHT22;32620;51.704;7.822;2022-09-09T15:02:16;20.30;99.90
46416;DHT22;32620;51.704;7.822;2022-09-09T15:04:41;20.20;99.90
46416;DHT22;32620;51.704;7.822;2022-09-09T15:07:07;20.20;99.90
46416;DHT22;32620;51.704;7.822;2022-09-09T15:09:32;20.10;99.90
46416;DHT22;32620;51.704;7.822;2022-09-09T15:11:58;20.10;99.90
46416;DHT22;32620;51.704;7.822;2022-09-09T15:14:23;20.10;99.90
46416;DHT22;32620;51.704;7.822;2022-09-09T15:16:49;20.10;99.90
46416;DHT22;32620;51.704;7.822;2022-09-09T15:19:14;20.10;99.90
46416;DHT22;32620;51.704;7.822;2022-09-09T15:21:40;20.20;99.90
46416;DHT22;32620;51.704;7.822;2022-09-09T15:24:05;20.30;99.90
46416;DHT22;32620;51.704;7.822;2022-09-09T15:26:33;20.40;99.90
46416;DHT22;32620;51.704;7.822;2022-09-09T15:28:59;20.40;99.90
46416;DHT22;32620;51.704;7.822;2022-09-09T15:31:26;20.40;99.90
46416;DHT22;32620;51.704;7.822;2022-09-09T15:33:54;20.50;99.90
46416;DHT22;32620;51.704;7.822;2022-09-09T15:36:26;20.60;99.90
46416;DHT22;32620;51.704;7.822;2022-09-09T15:38:52;20.60;99.90
46416;DHT22;32620;51.704;7.822;2022-09-09T15:41:18;20.60;99.90
46416;DHT22;32620;51.704;7.822;2022-09-09T15:43:45;20.60;99.90
46416;DHT22;32620;51.704;7.822;2022-09-09T15:51:44;20.10;99.90
46416;DHT22;32620;51.704;7.822;2022-09-09T15:54:11;20.00;99.90
46416;DHT22;32620;51.704;7.822;2022-09-09T15:56:37;19.80;99.90
46416;DHT22;32620;51.704;7.822;2022-09-09T15:59:03;19.70;99.90
46416;DHT22;32620;51.704;7.822;2022-09-09T16:01:28;19.60;99.90
46416;DHT22;32620;51.704;7.822;2022-09-09T16:03:55;19.60;99.90
46416;DHT22;32620;51.704;7.822;2022-09-09T16:06:22;19.60;99.90
46416;DHT22;32620;51.704;7.822;2022-09-09T16:08:49;19.50;99.90
46416;DHT22;32620;51.704;7.822;2022-09-09T16:11:17;19.40;99.90
46416;DHT22;32620;51.704;7.822;2022-09-09T16:13:45;19.30;99.90
46416;DHT22;32620;51.704;7.822;2022-09-09T16:16:12;19.20;99.90
46416;DHT22;32620;51.704;7.822;2022-09-09T16:18:39;19.20;99.90
46416;DHT22;32620;51.704;7.822;2022-09-09T16:21:05;19.10;99.90
46416;DHT22;32620;51.704;7.822;2022-09-09T16:23:31;18.90;99.90
46416;DHT22;32620;51.704;7.822;2022-09-09T16:25:57;18.50;99.90
46416;DHT22;32620;51.704;7.822;2022-09-09T16:28:23;18.10;99.90
46416;DHT22;32620;51.704;7.822;2022-09-09T16:30:48;17.80;99.90
46416;DHT22;32620;51.704;7.822;2022-09-09T16:33:14;17.60;99.90
46416;DHT22;32620;51.704;7.822;2022-09-09T16:35:40;17.40;99.90
46416;DHT22;32620;51.704;7.822;2022-09-09T16:38:06;17.20;99.90
46416;DHT22;32620;51.704;7.822;2022-09-09T16:40:34;17.10;99.90
46416;DHT22;32620;51.704;7.822;2022-09-09T16:43:00;16.90;99.90
46416;DHT22;32620;51.704;7.822;2022-09-09T16:45:26;16.70;99.90
46416;DHT22;32620;51.704;7.822;2022-09-09T16:47:52;16.50;99.90
46416;DHT22;32620;51.704;7.822;2022-09-09T16:50:18;16.40;99.90
46416;DHT22;32620;51.704;7.822;2022-09-09T16:52:43;16.20;99.90
46416;DHT22;32620;51.704;7.822;2022-09-09T16:55:09;16.10;99.90
46416;DHT22;32620;51.704;7.822;2022-09-09T16:57:34;16.00;99.90
46416;DHT22;32620;51.704;7.822;2022-09-09T17:00:00;15.90;99.90
46416;DHT22;32620;51.704;7.822;2022-09-09T17:02:26;15.90;99.90
46416;DHT22;32620;51.704;7.822;2022-09-09T17:04:51;15.80;99.90
46416;DHT22;32620;51.704;7.822;2022-09-09T17:07:17;15.80;99.90